Time;durP1;ratioP1;P1;durP2;ratioP2;P2;SDS_P1;SDS_P2;PMS_P1;PMS_P2;Temp;Humidity;BMP_temperature;BMP_pressure;BME280_temperature;BME280_humidity;BME280_pressure;Samples;Min_cycle;Max_cycle;Signal;HPM_P1;HPM_P2
2022/02/08 00:00:01;;;;;;;2.42;0.30;;;;;20.70;100512.00;;;;5088325;28;20040;-73
2022/02/08 00:02:36;;;;;;;0.00;0.00;;;;;20.60;100502.00;;;;5088863;28;20596;-73
2022/02/08 00:05:08;;;;;;;0.15;0.15;;;;;20.60;100503.00;;;;5088601;28;20059;-75
2022/02/08 00:07:38;;;;;;;0.00;0.00;;;;;20.60;100518.00;;;;5088248;28;20115;-75
2022/02/08 00:10:07;;;;;;;1.75;1.40;;;;;20.60;100510.00;;;;5107691;28;20395;-73
2022/02/08 00:12:37;;;;;;;0.00;0.00;;;;;20.60;100519.00;;;;5106937;28;20517;-72
2022/02/08 00:15:08;;;;;;;0.15;0.15;;;;;20.60;100534.00;;;;5109134;28;20051;-74
2022/02/08 00:17:37;;;;;;;0.00;0.00;;;;;20.60;100516.00;;;;5108916;28;20048;-74
2022/02/08 00:20:09;;;;;;;0.00;0.00;;;;;20.60;100533.00;;;;5107029;28;20054;-74
2022/02/08 00:22:39;;;;;;;0.00;0.00;;;;;20.60;100536.00;;;;5106891;28;20105;-72
2022/02/08 00:25:09;;;;;;;1.50;1.40;;;;;20.60;100523.00;;;;5108790;28;20040;-73
2022/02/08 00:27:38;;;;;;;0.00;0.00;;;;;20.60;100519.00;;;;5109530;28;20035;-75
2022/02/08 00:30:08;;;;;;;0.00;0.00;;;;;20.60;100542.00;;;;5108811;28;20062;-73
2022/02/08 00:32:38;;;;;;;0.00;0.00;;;;;20.60;100529.00;;;;5106489;28;20464;-76
2022/02/08 00:35:08;;;;;;;0.00;0.00;;;;;20.50;100533.00;;;;5108302;28;20038;-75
2022/02/08 00:37:37;;;;;;;0.00;0.00;;;;;20.50;100539.00;;;;5106682;28;20044;-74
2022/02/08 00:40:07;;;;;;;0.00;0.00;;;;;20.50;100546.00;;;;5107898;28;20035;-74
2022/02/08 00:42:37;;;;;;;0.00;0.00;;;;;20.50;100548.00;;;;5095663;28;20036;-72
2022/02/08 00:47:53;;;;;;;0.00;0.00;;;;;20.40;100545.00;;;;5088827;28;20040;-73
2022/02/08 00:50:23;;;;;;;0.00;0.00;;;;;20.40;100544.00;;;;5086487;28;20059;-75
2022/02/08 00:52:52;;;;;;;0.00;0.00;;;;;20.40;100554.00;;;;5088931;28;20427;-73
2022/02/08 00:55:25;;;;;;;0.00;0.00;;;;;20.40;100558.00;;;;5117737;27;20043;-76
2022/02/08 00:57:55;;;;;;;0.00;0.00;;;;;20.40;100560.00;;;;5116842;27;20067;-76
2022/02/08 01:00:26;;;;;;;0.00;0.00;;;;;20.40;100571.00;;;;5115588;27;20524;-75
2022/02/08 01:02:58;;;;;;;0.00;0.00;;;;;20.50;100579.00;;;;5118097;27;20506;-75
2022/02/08 01:05:28;;;;;;;0.93;0.90;;;;;20.40;100553.00;;;;5121910;27;20413;-74
2022/02/08 01:07:57;;;;;;;0.00;0.00;;;;;20.40;100565.00;;;;5119830;27;20043;-77
2022/02/08 01:10:34;;;;;;;0.05;0.05;;;;;20.40;100547.00;;;;5116252;27;20092;-72
2022/02/08 01:13:06;;;;;;;0.00;0.00;;;;;20.40;100554.00;;;;5112920;27;20063;-74
2022/02/08 01:15:37;;;;;;;0.00;0.00;;;;;20.40;100567.00;;;;5119482;27;20134;-75
2022/02/08 01:18:07;;;;;;;0.00;0.00;;;;;20.40;100569.00;;;;5117341;27;20123;-73
2022/02/08 01:20:38;;;;;;;0.00;0.00;;;;;20.30;100560.00;;;;5115762;27;20081;-74
2022/02/08 01:23:10;;;;;;;0.00;0.00;;;;;20.30;100553.00;;;;5116146;27;20069;-73
2022/02/08 01:25:46;;;;;;;0.00;0.00;;;;;20.30;100561.00;;;;5116774;27;20054;-75
2022/02/08 01:30:58;;;;;;;0.00;0.00;;;;;20.30;100562.00;;;;5125326;27;20043;-74
2022/02/08 01:39:12;;;;;;;;;;;;;20.20;100564.00;;;;5127291;27;20429;-74
2022/02/08 01:44:28;;;;;;;0.00;0.00;;;;;20.20;100565.00;;;;5125331;27;20043;-75
2022/02/08 01:49:34;;;;;;;0.00;0.00;;;;;20.10;100571.00;;;;5125902;27;20057;-76
2022/02/08 01:52:07;;;;;;;0.00;0.00;;;;;20.10;100562.00;;;;5126227;27;20082;-75
2022/02/08 01:54:37;;;;;;;0.00;0.00;;;;;20.10;100563.00;;;;5126465;27;20502;-73
2022/02/08 01:57:07;;;;;;;0.00;0.00;;;;;20.10;100571.00;;;;5125757;27;20142;-75
2022/02/08 01:59:39;;;;;;;0.00;0.00;;;;;20.10;100545.00;;;;5126447;27;20038;-73
2022/02/08 02:02:10;;;;;;;0.00;0.00;;;;;20.10;100554.00;;;;5125917;27;20096;-76
2022/02/08 02:04:39;;;;;;;0.00;0.00;;;;;20.10;100559.00;;;;5127559;27;20111;-75
2022/02/08 02:07:10;;;;;;;0.00;0.00;;;;;20.10;100551.00;;;;5126196;27;20043;-75
2022/02/08 02:09:44;;;;;;;0.00;0.00;;;;;20.00;100558.00;;;;5127833;27;20034;-75
2022/02/08 02:12:20;;;;;;;0.00;0.00;;;;;20.00;100563.00;;;;5126191;27;20666;-76
2022/02/08 02:14:50;;;;;;;0.00;0.00;;;;;20.00;100572.00;;;;5127050;27;20047;-76
2022/02/08 02:17:20;;;;;;;0.00;0.00;;;;;20.10;100551.00;;;;5127065;27;20494;-76
2022/02/08 02:19:49;;;;;;;0.00;0.00;;;;;20.10;100565.00;;;;5127365;27;20423;-72
2022/02/08 02:22:19;;;;;;;0.00;0.00;;;;;20.10;100555.00;;;;5126488;27;20514;-74
2022/02/08 02:24:49;;;;;;;0.00;0.00;;;;;20.20;100571.00;;;;5126277;27;20490;-74
2022/02/08 02:27:18;;;;;;;0.00;0.00;;;;;20.20;100577.00;;;;5125873;27;20121;-75
2022/02/08 02:29:48;;;;;;;0.00;0.00;;;;;20.20;100579.00;;;;5125530;27;20472;-74
2022/02/08 02:32:18;;;;;;;0.00;0.00;;;;;20.20;100578.00;;;;5125615;27;20047;-74
2022/02/08 02:34:51;;;;;;;0.00;0.00;;;;;20.10;100583.00;;;;5126345;27;20498;-75
2022/02/08 02:37:21;;;;;;;0.00;0.00;;;;;20.10;100581.00;;;;5128048;28;20039;-74
2022/02/08 02:39:51;;;;;;;0.00;0.00;;;;;20.10;100590.00;;;;5126499;28;20075;-76
2022/02/08 02:42:22;;;;;;;0.00;0.00;;;;;20.10;100578.00;;;;5109267;28;20114;-76
2022/02/08 02:44:51;;;;;;;0.00;0.00;;;;;20.10;100578.00;;;;5126429;27;20039;-77
2022/02/08 02:47:23;;;;;;;0.00;0.00;;;;;20.10;100580.00;;;;5126492;28;20100;-73
2022/02/08 02:49:53;;;;;;;0.00;0.00;;;;;20.10;100571.00;;;;5109244;28;20142;-77
2022/02/08 02:52:24;;;;;;;0.00;0.00;;;;;20.00;100569.00;;;;5125462;28;20059;-76
2022/02/08 02:54:58;;;;;;;0.00;0.00;;;;;20.00;100580.00;;;;5125251;28;20074;-76
2022/02/08 02:57:28;;;;;;;0.00;0.00;;;;;19.90;100572.00;;;;5127995;27;20055;-73
2022/02/08 03:00:09;;;;;;;0.00;0.00;;;;;19.90;100574.00;;;;5129743;27;20078;-75
2022/02/08 03:03:12;;;;;;;0.00;0.00;;;;;19.90;100577.00;;;;5129756;27;20528;-75
2022/02/08 03:19:43;;;;;;;0.00;0.00;;;;;19.70;100579.00;;;;5128952;27;20437;-75
2022/02/08 03:22:13;;;;;;;0.00;0.00;;;;;19.70;100571.00;;;;5128054;27;20050;-74
2022/02/08 03:24:43;;;;;;;0.00;0.00;;;;;19.70;100572.00;;;;5128641;27;20313;-74
2022/02/08 03:27:15;;;;;;;0.00;0.00;;;;;19.70;100555.00;;;;5129044;27;20403;-75
2022/02/08 03:29:48;;;;;;;0.00;0.00;;;;;19.70;100571.00;;;;5129212;27;20173;-75
2022/02/08 03:32:19;;;;;;;0.00;0.00;;;;;19.80;100563.00;;;;5129678;27;20039;-75
2022/02/08 03:34:50;;;;;;;0.00;0.00;;;;;19.80;100544.00;;;;5128978;27;20047;-75
2022/02/08 03:37:20;;;;;;;0.00;0.00;;;;;19.80;100551.00;;;;5129045;27;20472;-74
2022/02/08 03:40:01;;;;;;;0.00;0.00;;;;;19.80;100546.00;;;;5128808;27;20043;-75
2022/02/08 03:42:38;;;;;;;0.00;0.00;;;;;19.90;100567.00;;;;5128324;27;20043;-75
2022/02/08 03:45:14;;;;;;;0.00;0.00;;;;;19.80;100568.00;;;;5127932;27;20186;-74
2022/02/08 03:47:44;;;;;;;0.00;0.00;;;;;19.80;100546.00;;;;5128554;27;20096;-74
2022/02/08 03:50:14;;;;;;;0.00;0.00;;;;;19.70;100554.00;;;;5128613;27;20466;-75
2022/02/08 03:52:43;;;;;;;0.00;0.00;;;;;19.70;100552.00;;;;5111315;27;20555;-75
2022/02/08 03:55:14;;;;;;;0.00;0.00;;;;;19.70;100553.00;;;;5128725;27;20043;-74
2022/02/08 03:57:45;;;;;;;0.00;0.00;;;;;19.80;100544.00;;;;5127602;27;20047;-74
2022/02/08 04:00:17;;;;;;;0.00;0.00;;;;;19.80;100549.00;;;;5124608;27;20209;-75
2022/02/08 04:02:54;;;;;;;0.00;0.00;;;;;19.80;100531.00;;;;5125710;27;20410;-75
2022/02/08 04:05:39;;;;;;;0.00;0.00;;;;;19.80;100548.00;;;;5127963;27;20421;-75
2022/02/08 04:08:12;;;;;;;0.00;0.00;;;;;19.80;100541.00;;;;5129193;27;20043;-74
2022/02/08 04:10:43;;;;;;;0.00;0.00;;;;;19.80;100533.00;;;;5129418;27;20051;-74
2022/02/08 04:13:24;;;;;;;0.00;0.00;;;;;19.80;100544.00;;;;5129509;27;20047;-75
2022/02/08 04:18:53;;;;;;;0.00;0.00;;;;;19.80;100538.00;;;;5128638;27;20456;-76
2022/02/08 04:36:14;;;;;;;0.00;0.00;;;;;19.20;100542.00;;;;5105676;27;20083;-75
2022/02/08 04:41:06;;;;;;;0.00;0.00;;;;;19.10;100514.00;;;;5128942;27;20513;-75
2022/02/08 04:43:46;;;;;;;0.00;0.00;;;;;19.10;100544.00;;;;5128543;27;20066;-74
2022/02/08 04:48:56;;;;;;;0.00;0.00;;;;;18.90;100523.00;;;;5129250;27;20096;-74
2022/02/08 04:51:38;;;;;;;0.00;0.00;;;;;18.80;100520.00;;;;5128393;27;20423;-75
2022/02/08 04:54:24;;;;;;;0.00;0.00;;;;;18.80;100517.00;;;;5129087;27;20061;-75
2022/02/08 04:59:40;;;;;;;0.00;0.00;;;;;18.50;100518.00;;;;5128285;27;20526;-75
2022/02/08 05:46:00;;;;;;;0.00;0.00;;;;;17.80;100486.00;;;;5127604;27;20532;-75
2022/02/08 05:48:31;;;;;;;0.00;0.00;;;;;17.60;100493.00;;;;5127447;27;20048;-75
2022/02/08 05:51:13;;;;;;;0.00;0.00;;;;;17.50;100508.00;;;;5127860;27;20088;-74
2022/02/08 05:53:46;;;;;;;0.00;0.00;;;;;17.40;100491.00;;;;5127439;27;20082;-74
2022/02/08 05:56:19;;;;;;;8.45;0.80;;;;;17.30;100479.00;;;;5127422;27;20137;-74
2022/02/08 05:58:49;;;;;;;0.00;0.00;;;;;17.40;100497.00;;;;5127524;27;20434;-76
2022/02/08 06:01:18;;;;;;;0.00;0.00;;;;;17.30;100492.00;;;;5127858;27;20108;-74
2022/02/08 06:04:04;;;;;;;0.00;0.00;;;;;17.30;100508.00;;;;5126294;27;20047;-74
2022/02/08 06:06:34;;;;;;;0.00;0.00;;;;;17.20;100507.00;;;;5127391;27;20096;-76
2022/02/08 06:09:03;;;;;;;0.00;0.00;;;;;17.30;100491.00;;;;5127652;27;20409;-75
2022/02/08 06:11:36;;;;;;;0.00;0.00;;;;;17.20;100494.00;;;;5127955;27;20039;-75
2022/02/08 06:14:08;;;;;;;0.00;0.00;;;;;17.20;100481.00;;;;5126110;27;20057;-74
2022/02/08 06:16:38;;;;;;;0.00;0.00;;;;;17.10;100481.00;;;;5126251;27;20502;-74
2022/02/08 06:19:07;;;;;;;0.00;0.00;;;;;17.10;100488.00;;;;5127154;27;20137;-75
2022/02/08 06:21:37;;;;;;;0.00;0.00;;;;;17.10;100502.00;;;;5127239;27;20497;-74
2022/02/08 06:24:07;;;;;;;0.00;0.00;;;;;17.10;100488.00;;;;5127231;27;20046;-75
2022/02/08 06:26:36;;;;;;;0.00;0.00;;;;;17.00;100496.00;;;;5127299;27;20054;-75
2022/02/08 06:29:14;;;;;;;0.00;0.00;;;;;17.00;100493.00;;;;5127072;27;20047;-75
2022/02/08 06:31:45;;;;;;;0.00;0.00;;;;;16.90;100498.00;;;;5126882;27;20506;-74
2022/02/08 06:34:20;;;;;;;0.00;0.00;;;;;16.90;100493.00;;;;5127115;27;20126;-74
2022/02/08 06:36:58;;;;;;;0.00;0.00;;;;;16.90;100499.00;;;;5126085;28;20468;-74
2022/02/08 06:39:33;;;;;;;0.00;0.00;;;;;16.90;100494.00;;;;5126955;27;20035;-75
2022/02/08 06:42:04;;;;;;;0.00;0.00;;;;;16.90;100485.00;;;;5126618;28;20126;-74
2022/02/08 06:44:33;;;;;;;0.00;0.00;;;;;16.80;100496.00;;;;5126948;27;20038;-74
2022/02/08 06:47:03;;;;;;;0.00;0.00;;;;;16.70;100490.00;;;;5125913;28;20582;-75
2022/02/08 06:49:33;;;;;;;0.00;0.00;;;;;16.70;100515.00;;;;5127284;27;20043;-75
2022/02/08 06:52:04;;;;;;;0.00;0.00;;;;;16.80;100503.00;;;;5125927;28;20104;-74
2022/02/08 06:54:33;;;;;;;0.00;0.00;;;;;16.70;100495.00;;;;5126303;28;20181;-75
2022/02/08 06:57:03;;;;;;;0.00;0.00;;;;;16.70;100516.00;;;;5127914;27;20031;-74
2022/02/08 06:59:37;;;;;;;0.00;0.00;;;;;16.70;100504.00;;;;5128395;28;20062;-74
2022/02/08 07:02:07;;;;;;;0.00;0.00;;;;;16.60;100497.00;;;;5127122;28;20046;-74
2022/02/08 07:04:36;;;;;;;0.00;0.00;;;;;16.60;100515.00;;;;5127727;28;20460;-75
2022/02/08 07:07:08;;;;;;;0.00;0.00;;;;;16.60;100512.00;;;;5146828;27;20047;-74
2022/02/08 07:09:37;;;;;;;0.00;0.00;;;;;16.60;100507.00;;;;5153540;27;20030;-75
2022/02/08 07:12:08;;;;;;;0.00;0.00;;;;;16.50;100506.00;;;;5153376;27;20007;-76
2022/02/08 07:14:39;;;;;;;0.00;0.00;;;;;16.40;100516.00;;;;5153565;27;20060;-75
2022/02/08 07:17:08;;;;;;;0.00;0.00;;;;;16.40;100506.00;;;;5152110;28;20053;-75
2022/02/08 07:19:37;;;;;;;0.00;0.00;;;;;16.40;100516.00;;;;5151665;27;20049;-75
2022/02/08 07:22:07;;;;;;;0.00;0.00;;;;;16.30;100507.00;;;;5137560;27;20115;-75
2022/02/08 07:24:36;;;;;;;0.00;0.00;;;;;16.30;100513.00;;;;5127093;27;20043;-75
2022/02/08 07:27:06;;;;;;;0.00;0.00;;;;;16.30;100532.00;;;;5126470;27;20088;-75
2022/02/08 07:29:38;;;;;;;0.00;0.00;;;;;16.20;100537.00;;;;5126508;27;20046;-75
2022/02/08 07:32:09;;;;;;;0.00;0.00;;;;;16.20;100530.00;;;;5126963;28;20115;-75
2022/02/08 07:34:44;;;;;;;0.00;0.00;;;;;16.20;100519.00;;;;5127103;27;20039;-74
2022/02/08 07:39:51;;;;;;;0.00;0.00;;;;;16.20;100523.00;;;;5126069;28;20046;-75
2022/02/08 07:42:21;;;;;;;0.00;0.00;;;;;16.20;100531.00;;;;5127426;27;20100;-75
2022/02/08 07:44:51;;;;;;;0.00;0.00;;;;;16.20;100513.00;;;;5128468;27;20084;-74
2022/02/08 07:47:25;;;;;;;0.00;0.00;;;;;16.10;100522.00;;;;5128703;27;20036;-75
2022/02/08 07:49:54;;;;;;;0.00;0.00;;;;;16.10;100535.00;;;;5128498;27;20039;-75
2022/02/08 07:52:24;;;;;;;0.00;0.00;;;;;16.10;100529.00;;;;5130414;27;20082;-75
2022/02/08 07:54:53;;;;;;;0.00;0.00;;;;;16.10;100543.00;;;;5130584;27;20045;-74
2022/02/08 07:57:23;;;;;;;0.00;0.00;;;;;16.10;100536.00;;;;5129880;27;20073;-74
2022/02/08 07:59:53;;;;;;;0.00;0.00;;;;;16.00;100538.00;;;;5129996;27;20046;-74
2022/02/08 08:02:22;;;;;;;0.00;0.00;;;;;16.00;100544.00;;;;5129616;27;20490;-74
2022/02/08 08:04:51;;;;;;;0.00;0.00;;;;;16.00;100522.00;;;;5129235;27;20437;-74
2022/02/08 08:07:21;;;;;;;0.00;0.00;;;;;16.00;100540.00;;;;5129700;27;20444;-74
2022/02/08 08:09:50;;;;;;;0.00;0.00;;;;;15.90;100529.00;;;;5129489;27;20031;-74
2022/02/08 08:12:21;;;;;;;0.00;0.00;;;;;15.90;100539.00;;;;5127825;27;20043;-73
2022/02/08 08:14:52;;;;;;;0.00;0.00;;;;;15.80;100529.00;;;;5129919;27;20604;-73
2022/02/08 08:17:53;;;;;;;0.00;0.00;;;;;15.90;100543.00;;;;5129500;27;20059;-75
2022/02/08 08:20:14;;;;;;;0.00;0.00;;;;;15.90;100549.00;;;;5128689;27;20035;-75
2022/02/08 08:22:43;;;;;;;0.00;0.00;;;;;15.90;100541.00;;;;5129695;27;20046;-74
2022/02/08 08:25:12;;;;;;;0.00;0.00;;;;;15.90;100533.00;;;;5129113;27;20043;-74
2022/02/08 08:27:42;;;;;;;0.00;0.00;;;;;15.90;100549.00;;;;5129119;27;20125;-75
2022/02/08 08:30:12;;;;;;;0.00;0.00;;;;;15.90;100549.00;;;;5127617;27;20040;-73
2022/02/08 08:32:42;;;;;;;0.00;0.00;;;;;15.90;100551.00;;;;5128704;27;20092;-74
2022/02/08 08:35:15;;;;;;;0.00;0.00;;;;;15.80;100544.00;;;;5129105;27;20039;-75
2022/02/08 08:37:46;;;;;;;0.00;0.00;;;;;15.90;100546.00;;;;5129083;27;20527;-74
2022/02/08 08:40:40;;;;;;;0.00;0.00;;;;;15.90;100536.00;;;;5129276;27;20071;-74
2022/02/08 08:53:47;;;;;;;0.00;0.00;;;;;15.80;100562.00;;;;5127794;27;20122;-74
2022/02/08 08:56:17;;;;;;;0.00;0.00;;;;;15.80;100546.00;;;;5127453;27;20063;-73
2022/02/08 08:58:46;;;;;;;0.00;0.00;;;;;15.80;100554.00;;;;5129533;27;20466;-74
2022/02/08 09:01:15;;;;;;;0.00;0.00;;;;;15.70;100568.00;;;;5126977;27;20046;-73
2022/02/08 09:03:47;;;;;;;0.00;0.00;;;;;15.70;100557.00;;;;5129352;27;20043;-74
2022/02/08 09:06:22;;;;;;;0.00;0.00;;;;;15.80;100563.00;;;;5128960;27;20044;-76
2022/02/08 09:08:51;;;;;;;0.00;0.00;;;;;15.80;100571.00;;;;5128356;27;20147;-74
2022/02/08 09:30:03;;;;;;;0.00;0.00;;;;;16.20;100611.00;;;;5128843;27;20039;-74
2022/02/08 09:35:11;;;;;;;0.00;0.00;;;;;16.30;100604.00;;;;5127488;27;20068;-74
2022/02/08 09:37:42;;;;;;;0.00;0.00;;;;;16.40;100617.00;;;;5128255;27;20039;-75
2022/02/08 09:40:13;;;;;;;0.00;0.00;;;;;16.40;100628.00;;;;5126780;27;20047;-74
2022/02/08 09:42:43;;;;;;;0.00;0.00;;;;;16.50;100623.00;;;;5126816;27;20064;-74
2022/02/08 09:45:18;;;;;;;0.00;0.00;;;;;16.60;100620.00;;;;5128503;27;20506;-74
2022/02/08 09:47:58;;;;;;;0.00;0.00;;;;;16.70;100628.00;;;;5127307;27;20048;-74
2022/02/08 09:50:32;;;;;;;0.00;0.00;;;;;16.80;100615.00;;;;5126589;27;20031;-73
2022/02/08 09:53:07;;;;;;;0.00;0.00;;;;;16.90;100608.00;;;;5126998;27;20061;-74
2022/02/08 09:55:39;;;;;;;0.00;0.00;;;;;17.10;100612.00;;;;5127394;27;20047;-75
2022/02/08 09:58:09;;;;;;;;;;;;;17.20;100616.00;;;;5127688;27;20047;-74
2022/02/08 10:00:40;;;;;;;0.00;0.00;;;;;17.30;100619.00;;;;5127723;27;19923;-75
2022/02/08 10:03:13;;;;;;;0.00;0.00;;;;;17.60;100596.00;;;;5127443;27;20114;-74
2022/02/08 10:05:46;;;;;;;0.00;0.00;;;;;17.80;100623.00;;;;5126701;27;20581;-74
2022/02/08 10:08:16;;;;;;;0.00;0.00;;;;;17.90;100606.00;;;;5127905;27;20080;-75
2022/02/08 10:10:47;;;;;;;0.00;0.00;;;;;18.20;100596.00;;;;5127284;27;20050;-76
2022/02/08 10:13:42;;;;;;;0.00;0.00;;;;;19.10;100542.00;;;;5128420;27;20112;-75
2022/02/08 10:19:37;;;;;;;0.00;0.00;;;;;21.00;100578.00;;;;5127644;27;20100;-75
2022/02/08 10:22:09;;;;;;;0.00;0.00;;;;;20.30;100599.00;;;;5127394;27;20035;-75
2022/02/08 10:24:49;;;;;;;0.00;0.00;;;;;19.80;100619.00;;;;5126753;27;20074;-76
2022/02/08 10:27:34;;;;;;;0.00;0.00;;;;;19.90;100614.00;;;;5126591;27;20039;-75
2022/02/08 10:44:01;;;;;;;0.00;0.00;;;;;30.60;100430.00;;;;5124132;27;21000;-74
2022/02/08 10:46:33;;;;;;;0.00;0.00;;;;;31.00;100426.00;;;;5125077;27;20043;-75
2022/02/08 10:49:07;;;;;;;0.30;0.30;;;;;31.40;100412.00;;;;5124096;27;20040;-75
2022/02/08 10:55:04;;;;;;;0.30;0.20;;;;;31.60;100433.00;;;;5124370;27;20043;-75
2022/02/08 10:57:11;;;;;;;0.00;0.00;;;;;31.50;100437.00;;;;5120122;28;20762;-74
2022/02/08 10:59:51;;;;;;;0.50;0.10;;;;;31.40;100438.00;;;;5124119;27;20039;-74
2022/02/08 11:02:28;;;;;;;0.00;0.00;;;;;31.30;100449.00;;;;5124291;27;20137;-74
2022/02/08 11:05:06;;;;;;;0.50;0.10;;;;;32.20;100446.00;;;;5124176;27;20451;-74
2022/02/08 11:10:27;;;;;;;0.50;0.13;;;;;32.10;100442.00;;;;5122457;28;20043;-76
2022/02/08 11:15:46;;;;;;;0.22;0.22;;;;;31.80;100446.00;;;;5123935;27;20112;-75
2022/02/08 11:18:35;;;;;;;0.75;0.75;;;;;33.20;100427.00;;;;5123189;27;20047;-75
2022/02/08 11:21:22;;;;;;;0.05;0.05;;;;;33.10;100439.00;;;;5122694;28;20063;-73
2022/02/08 11:26:39;;;;;;;0.00;0.00;;;;;33.00;100429.00;;;;5122263;27;20063;-76
2022/02/08 11:29:12;;;;;;;0.00;0.00;;;;;33.20;100431.00;;;;5121371;27;20043;-74
2022/02/08 11:31:48;;;;;;;35.28;1.67;;;;;33.60;100407.00;;;;5123651;27;20047;-75
2022/02/08 11:57:53;;;;;;;0.65;0.32;;;;;31.60;100423.00;;;;5109242;28;20047;-75
2022/02/08 12:00:21;;;;;;;0.00;0.00;;;;;31.20;100425.00;;;;5108453;28;20057;-75
2022/02/08 12:03:12;;;;;;;0.10;0.10;;;;;30.40;100436.00;;;;5108605;28;20051;-75
2022/02/08 12:06:28;;;;;;;0.00;0.00;;;;;29.70;100438.00;;;;5109586;28;20040;-75
2022/02/08 12:08:43;;;;;;;0.00;0.00;;;;;29.20;100452.00;;;;5106474;28;20055;-77
2022/02/08 12:39:35;;;;;;;0.00;0.00;;;;;27.70;100590.00;;;;5109211;28;20039;-78
2022/02/08 12:56:29;;;;;;;0.20;0.20;;;;;28.30;100624.00;;;;5106874;28;20051;-75
2022/02/08 12:59:13;;;;;;;2.72;0.50;;;;;28.00;100609.00;;;;5107435;28;20051;-75
2022/02/08 14:06:15;;;;;;;0.00;0.00;;;;;30.20;100628.00;;;;5084357;28;19920;-77
2022/02/08 14:14:30;;;;;;;0.00;0.00;;;;;30.60;100642.00;;;;5120367;27;20051;-74
2022/02/08 14:22:35;;;;;;;0.13;0.13;;;;;30.10;100611.00;;;;5106917;27;20572;-74
2022/02/08 14:29:01;;;;;;;0.00;0.00;;;;;29.80;100686.00;;;;5088348;28;20446;-75
2022/02/08 14:30:58;;;;;;;0.00;0.00;;;;;30.00;100613.00;;;;5106762;28;20078;-73
2022/02/08 14:33:47;;;;;;;0.00;0.00;;;;;30.90;100611.00;;;;5106677;28;20125;-76
2022/02/08 15:09:52;;;;;;;0.00;0.00;;;;;31.30;100618.00;;;;5118719;27;20062;-74
2022/02/08 15:12:26;;;;;;;0.00;0.00;;;;;31.30;100590.00;;;;5127526;27;20039;-74
2022/02/08 15:17:32;;;;;;;0.28;0.28;;;;;30.40;100578.00;;;;5126767;27;20039;-75
2022/02/08 15:20:04;;;;;;;0.43;0.30;;;;;30.50;100580.00;;;;5129925;27;20094;-76
2022/02/08 15:22:34;;;;;;;0.00;0.00;;;;;31.40;100590.00;;;;5129321;27;20050;-77
2022/02/08 15:25:03;;;;;;;0.00;0.00;;;;;31.90;100591.00;;;;5129231;27;20531;-79
2022/02/08 15:27:35;;;;;;;0.00;0.00;;;;;32.10;100570.00;;;;5131237;27;20536;-77
2022/02/08 15:30:08;;;;;;;0.00;0.00;;;;;32.10;100581.00;;;;5130994;27;20070;-74
2022/02/08 15:32:42;;;;;;;2.00;0.65;;;;;32.10;100568.00;;;;5122045;27;20097;-77
2022/02/08 15:35:11;;;;;;;0.27;0.10;;;;;32.10;100572.00;;;;5123664;27;20054;-74
2022/02/08 15:37:40;;;;;;;1.27;0.20;;;;;32.10;100561.00;;;;5129940;27;20133;-74
2022/02/08 15:40:13;;;;;;;0.30;0.13;;;;;31.30;100563.00;;;;5141199;27;20019;-76
2022/02/08 15:42:43;;;;;;;3.72;1.55;;;;;31.50;100555.00;;;;5149650;27;20047;-75
2022/02/08 15:45:26;;;;;;;0.00;0.00;;;;;31.90;100646.00;;;;5149574;27;20026;-77
2022/02/08 15:47:59;;;;;;;0.00;0.00;;;;;31.40;100567.00;;;;5143540;27;20032;-75
2022/02/08 16:07:04;;;;;;;2.08;1.55;;;;;32.10;100554.00;;;;5102311;27;20055;-75
2022/02/08 16:15:33;;;;;;;0.10;0.05;;;;;32.10;100555.00;;;;5097598;27;20036;-76
2022/02/08 16:18:19;;;;;;;3.55;0.28;;;;;32.50;100541.00;;;;5111672;27;20039;-76
2022/02/08 16:21:05;;;;;;;0.00;0.00;;;;;33.20;100554.00;;;;5115493;27;20039;-77
2022/02/08 16:26:43;;;;;;;0.20;0.10;;;;;32.00;100539.00;;;;5078483;27;20052;-75
2022/02/08 16:32:22;;;;;;;4.75;0.35;;;;;32.40;100543.00;;;;5128461;27;20390;-74
2022/02/08 16:47:50;;;;;;;0.00;0.00;;;;;33.10;100523.00;;;;5128676;27;20440;-77
2022/02/08 16:49:25;;;;;;;0.00;0.00;;;;;34.10;100538.00;;;;5122164;27;20055;-75
2022/02/08 16:54:58;;;;;;;0.00;0.00;;;;;33.80;100502.00;;;;5129347;27;20398;-76
2022/02/08 16:57:43;;;;;;;0.10;0.10;;;;;32.70;100539.00;;;;5129151;27;20071;-79
2022/02/08 17:00:18;;;;;;;2.30;0.20;;;;;33.10;100510.00;;;;5128584;27;20589;-78
2022/02/08 17:03:08;;;;;;;0.40;0.20;;;;;33.30;100549.00;;;;5128650;27;20054;-75
2022/02/08 17:05:39;;;;;;;0.00;0.00;;;;;33.00;100515.00;;;;5128740;27;20442;-78
2022/02/08 17:08:14;;;;;;;0.00;0.00;;;;;33.10;100552.00;;;;5130385;27;20532;-79
2022/02/08 17:10:48;;;;;;;0.00;0.00;;;;;32.30;100505.00;;;;5128636;27;20437;-76
2022/02/08 17:16:17;;;;;;;0.35;0.35;;;;;33.60;100530.00;;;;5128801;27;20130;-75
2022/02/08 17:46:05;;;;;;;0.00;0.00;;;;;35.60;100498.00;;;;5128016;27;20049;-80
2022/02/08 17:48:36;;;;;;;;;;;;;35.50;100490.00;;;;5129810;27;20498;-77
2022/02/08 17:51:07;;;;;;;0.10;0.10;;;;;35.30;100486.00;;;;5128108;27;20001;-76
2022/02/08 17:53:57;;;;;;;1.95;0.45;;;;;31.70;100535.00;;;;5127902;27;20540;-78
2022/02/08 17:56:27;;;;;;;0.00;0.00;;;;;30.30;100560.00;;;;5127968;27;20035;-76
2022/02/08 17:59:02;;;;;;;0.35;0.20;;;;;33.00;100528.00;;;;5127869;27;20066;-75
2022/02/08 18:01:31;;;;;;;1.95;0.98;;;;;31.10;100549.00;;;;5128320;27;20609;-80
2022/02/08 18:04:01;;;;;;;0.00;0.00;;;;;30.30;100503.00;;;;5128013;27;20073;-73
2022/02/08 18:06:30;;;;;;;0.00;0.00;;;;;33.30;100460.00;;;;5127149;27;20073;-73
2022/02/08 18:09:02;;;;;;;0.00;0.00;;;;;32.70;100539.00;;;;5127080;27;20051;-79
2022/02/08 18:11:38;;;;;;;0.00;0.00;;;;;30.90;100554.00;;;;5126953;27;20150;-78
2022/02/08 18:14:11;;;;;;;0.00;0.00;;;;;30.00;100529.00;;;;5127796;27;20154;-78
2022/02/08 18:16:41;;;;;;;0.00;0.00;;;;;31.00;100571.00;;;;5128177;27;20035;-83
2022/02/08 18:19:16;;;;;;;0.00;0.00;;;;;30.20;100550.00;;;;5126199;27;20054;-81
2022/02/08 18:21:56;;;;;;;0.00;0.00;;;;;29.80;100552.00;;;;5127454;27;20043;-75
2022/02/08 18:24:47;;;;;;;0.00;0.00;;;;;29.30;100559.00;;;;5127496;27;20444;-78
2022/02/08 19:04:15;;;;;;;0.00;0.00;;;;;30.80;100527.00;;;;5090384;28;20060;-75
2022/02/08 19:22:09;;;;;;;0.00;0.00;;;;;37.60;100413.00;;;;5089630;28;20046;-76
2022/02/08 19:24:39;;;;;;;0.00;0.00;;;;;31.80;100512.00;;;;5114627;27;20066;-78
2022/02/08 19:27:10;;;;;;;0.00;0.00;;;;;28.90;100507.00;;;;5112063;27;20039;-76
2022/02/08 19:29:39;;;;;;;0.00;0.00;;;;;27.70;100541.00;;;;5115094;27;20040;-78
2022/02/08 19:32:10;;;;;;;0.00;0.00;;;;;26.70;100536.00;;;;5113605;27;20039;-75
2022/02/08 19:34:42;;;;;;;0.00;0.00;;;;;26.10;100546.00;;;;5115350;27;20065;-75
2022/02/08 19:37:15;;;;;;;0.00;0.00;;;;;25.60;100566.00;;;;5110032;28;20557;-74
2022/02/08 19:39:47;;;;;;;0.00;0.00;;;;;25.40;100550.00;;;;5110004;28;20039;-75
2022/02/08 19:42:17;;;;;;;0.28;0.20;;;;;25.10;100548.00;;;;5109699;28;20574;-74
2022/02/08 19:44:54;;;;;;;0.00;0.00;;;;;24.90;100534.00;;;;5109163;28;20487;-74
2022/02/08 19:47:27;;;;;;;0.00;0.00;;;;;24.80;100540.00;;;;5109588;28;20044;-73
2022/02/08 19:49:58;;;;;;;0.00;0.00;;;;;24.80;100541.00;;;;5110222;28;20039;-75
2022/02/08 19:52:29;;;;;;;;;;;;;24.80;100550.00;;;;5110496;28;20510;-73
2022/02/08 19:55:40;;;;;;;0.00;0.00;;;;;25.00;100553.00;;;;5110007;27;20282;-74
2022/02/08 19:57:56;;;;;;;0.00;0.00;;;;;24.80;100545.00;;;;5107654;28;20045;-73
2022/02/08 20:00:31;;;;;;;0.00;0.00;;;;;24.60;100543.00;;;;5108488;28;20051;-73
2022/02/08 20:03:04;;;;;;;0.00;0.00;;;;;24.50;100548.00;;;;5109187;28;20126;-75
2022/02/08 20:05:34;;;;;;;0.00;0.00;;;;;24.50;100549.00;;;;5108607;28;20571;-76
2022/02/08 20:08:06;;;;;;;0.00;0.00;;;;;24.60;100542.00;;;;5109371;28;20050;-75
2022/02/08 20:10:36;;;;;;;0.15;0.08;;;;;24.60;100542.00;;;;5109640;28;20042;-75
2022/02/08 20:13:05;;;;;;;0.00;0.00;;;;;24.50;100562.00;;;;5109229;28;20046;-73
2022/02/08 20:15:35;;;;;;;0.00;0.00;;;;;24.90;100541.00;;;;5109510;28;20047;-75
2022/02/08 20:18:04;;;;;;;0.00;0.00;;;;;25.10;100534.00;;;;5109573;28;20050;-74
2022/02/08 20:20:35;;;;;;;0.00;0.00;;;;;26.00;100526.00;;;;5108991;28;20563;-75
2022/02/08 20:23:05;;;;;;;0.00;0.00;;;;;26.70;100544.00;;;;5109730;28;20513;-72
2022/02/08 20:25:43;;;;;;;0.00;0.00;;;;;26.00;100542.00;;;;5108552;28;20601;-73